Archival Weather

Bob Hope

Burbank, California (KBUR)

Report from: Monday, January 29, 2024 1:53 PM PST
Current time: Friday, June 14, 2024 5:18 AM PDT

Current weather – Weather history – Daily summaries
Weather forecast

Temperature25.6°C (78.1°F)
Dew point0.6°C (33.1°F)
Winds 3 kts (1.5 m/s, 3.5 mph) Vrb
Winds variableWinds variable
Visibility10 mi. (16.1 km)
Clouds Sky clear
Altimeter30.05 in.Hg (1018 mB)
Relative humidity19 %
Density altitude1,221 ft. (372 m)
Sea-level pressure101.6 kPa (1016 mB, 30.01 in.Hg)
Remarks Automated weather observing station with precipitation discriminator
Flight conditions Visual Meteorological Conditions
Raw dataKBUR 292153Z VRB03KT 10SM CLR 26/01 A3005 RMK AO2 SLP164 T02560006
An error has occurred. This application may no longer respond until reloaded. Reload 🗙